sensor_id;sensor_type;location;lat;lon;timestamp;temperature;humidity
20481;DHT22;10399;50.754;3.366;2023-07-24T00:02:03;19.30;99.90
20481;DHT22;10399;50.754;3.366;2023-07-24T00:04:31;19.30;99.90
20481;DHT22;10399;50.754;3.366;2023-07-24T00:07:00;19.30;99.90
20481;DHT22;10399;50.754;3.366;2023-07-24T00:09:27;19.20;99.90
20481;DHT22;10399;50.754;3.366;2023-07-24T00:11:54;19.00;99.90
20481;DHT22;10399;50.754;3.366;2023-07-24T00:14:21;19.00;99.90
20481;DHT22;10399;50.754;3.366;2023-07-24T00:16:48;19.20;99.90
20481;DHT22;10399;50.754;3.366;2023-07-24T00:19:16;19.30;99.90
20481;DHT22;10399;50.754;3.366;2023-07-24T00:21:43;19.30;99.90
20481;DHT22;10399;50.754;3.366;2023-07-24T00:24:10;19.20;99.90
20481;DHT22;10399;50.754;3.366;2023-07-24T00:26:37;19.30;99.90
20481;DHT22;10399;50.754;3.366;2023-07-24T00:29:04;19.30;99.90
20481;DHT22;10399;50.754;3.366;2023-07-24T00:31:31;19.20;99.90
20481;DHT22;10399;50.754;3.366;2023-07-24T00:33:59;19.00;99.90
20481;DHT22;10399;50.754;3.366;2023-07-24T00:36:27;19.00;99.90
20481;DHT22;10399;50.754;3.366;2023-07-24T00:38:55;18.80;99.90
20481;DHT22;10399;50.754;3.366;2023-07-24T00:41:22;18.90;99.90
20481;DHT22;10399;50.754;3.366;2023-07-24T00:43:50;18.90;99.90
20481;DHT22;10399;50.754;3.366;2023-07-24T00:46:17;18.90;99.90
20481;DHT22;10399;50.754;3.366;2023-07-24T00:48:45;19.00;99.90
20481;DHT22;10399;50.754;3.366;2023-07-24T00:51:12;19.00;99.90
20481;DHT22;10399;50.754;3.366;2023-07-24T00:53:40;18.90;99.90
20481;DHT22;10399;50.754;3.366;2023-07-24T00:56:07;18.70;99.90
20481;DHT22;10399;50.754;3.366;2023-07-24T00:58:37;18.70;99.90
20481;DHT22;10399;50.754;3.366;2023-07-24T01:01:05;18.70;99.90
20481;DHT22;10399;50.754;3.366;2023-07-24T01:03:34;18.70;99.90
20481;DHT22;10399;50.754;3.366;2023-07-24T01:06:03;18.70;99.90
20481;DHT22;10399;50.754;3.366;2023-07-24T01:08:31;18.80;99.90
20481;DHT22;10399;50.754;3.366;2023-07-24T01:11:02;18.90;99.90
20481;DHT22;10399;50.754;3.366;2023-07-24T01:13:34;19.00;99.90
20481;DHT22;10399;50.754;3.366;2023-07-24T01:16:14;19.10;99.90
20481;DHT22;10399;50.754;3.366;2023-07-24T01:18:43;19.10;99.90
20481;DHT22;10399;50.754;3.366;2023-07-24T01:21:12;19.10;99.90
20481;DHT22;10399;50.754;3.366;2023-07-24T01:23:55;18.90;99.90
20481;DHT22;10399;50.754;3.366;2023-07-24T01:26:23;18.80;99.90
20481;DHT22;10399;50.754;3.366;2023-07-24T01:28:54;18.80;99.90
20481;DHT22;10399;50.754;3.366;2023-07-24T01:31:21;18.70;99.90
20481;DHT22;10399;50.754;3.366;2023-07-24T01:33:48;18.90;99.90
20481;DHT22;10399;50.754;3.366;2023-07-24T01:36:16;18.90;99.90
20481;DHT22;10399;50.754;3.366;2023-07-24T01:38:48;18.90;99.90
20481;DHT22;10399;50.754;3.366;2023-07-24T01:41:20;18.90;99.90
20481;DHT22;10399;50.754;3.366;2023-07-24T01:43:47;18.80;99.90
20481;DHT22;10399;50.754;3.366;2023-07-24T01:46:15;19.00;99.90
20481;DHT22;10399;50.754;3.366;2023-07-24T01:48:42;19.00;99.90
20481;DHT22;10399;50.754;3.366;2023-07-24T01:51:09;19.00;99.90
20481;DHT22;10399;50.754;3.366;2023-07-24T01:53:36;19.00;99.90
20481;DHT22;10399;50.754;3.366;2023-07-24T01:56:03;18.90;99.90
20481;DHT22;10399;50.754;3.366;2023-07-24T01:58:31;19.00;99.90
20481;DHT22;10399;50.754;3.366;2023-07-24T02:01:01;19.00;99.90
20481;DHT22;10399;50.754;3.366;2023-07-24T02:03:28;19.00;99.90
20481;DHT22;10399;50.754;3.366;2023-07-24T02:05:56;18.90;99.90
20481;DHT22;10399;50.754;3.366;2023-07-24T02:08:23;18.70;99.90
20481;DHT22;10399;50.754;3.366;2023-07-24T02:10:50;18.70;99.90
20481;DHT22;10399;50.754;3.366;2023-07-24T02:13:18;18.60;99.90
20481;DHT22;10399;50.754;3.366;2023-07-24T02:15:45;18.50;99.90
20481;DHT22;10399;50.754;3.366;2023-07-24T02:18:12;18.50;99.90
20481;DHT22;10399;50.754;3.366;2023-07-24T02:20:39;18.40;99.90
20481;DHT22;10399;50.754;3.366;2023-07-24T02:23:08;18.20;99.90
20481;DHT22;10399;50.754;3.366;2023-07-24T02:25:36;18.10;99.90
20481;DHT22;10399;50.754;3.366;2023-07-24T02:28:04;17.90;99.90
20481;DHT22;10399;50.754;3.366;2023-07-24T02:30:31;17.80;99.90
20481;DHT22;10399;50.754;3.366;2023-07-24T02:32:58;17.70;99.90
20481;DHT22;10399;50.754;3.366;2023-07-24T02:35:25;17.80;99.90
20481;DHT22;10399;50.754;3.366;2023-07-24T02:37:53;17.80;99.90
20481;DHT22;10399;50.754;3.366;2023-07-24T02:40:20;17.80;99.90
20481;DHT22;10399;50.754;3.366;2023-07-24T02:42:47;17.50;99.90
20481;DHT22;10399;50.754;3.366;2023-07-24T02:45:15;17.50;99.90
20481;DHT22;10399;50.754;3.366;2023-07-24T02:47:42;17.50;99.90
20481;DHT22;10399;50.754;3.366;2023-07-24T02:50:10;17.50;99.90
20481;DHT22;10399;50.754;3.366;2023-07-24T02:52:37;17.60;99.90
20481;DHT22;10399;50.754;3.366;2023-07-24T02:55:04;17.50;99.90
20481;DHT22;10399;50.754;3.366;2023-07-24T02:57:31;17.40;99.90
20481;DHT22;10399;50.754;3.366;2023-07-24T02:59:58;17.40;99.90
20481;DHT22;10399;50.754;3.366;2023-07-24T03:02:26;17.50;99.90
20481;DHT22;10399;50.754;3.366;2023-07-24T03:04:53;17.40;99.90
20481;DHT22;10399;50.754;3.366;2023-07-24T03:07:20;17.50;99.90
20481;DHT22;10399;50.754;3.366;2023-07-24T03:09:47;17.50;99.90
20481;DHT22;10399;50.754;3.366;2023-07-24T03:12:15;17.70;99.90
20481;DHT22;10399;50.754;3.366;2023-07-24T03:14:42;17.70;99.90
20481;DHT22;10399;50.754;3.366;2023-07-24T03:17:10;17.70;99.90
20481;DHT22;10399;50.754;3.366;2023-07-24T03:19:37;17.70;99.90
20481;DHT22;10399;50.754;3.366;2023-07-24T03:22:15;17.60;99.90
20481;DHT22;10399;50.754;3.366;2023-07-24T03:24:42;17.60;99.90
20481;DHT22;10399;50.754;3.366;2023-07-24T03:27:10;17.60;99.90
20481;DHT22;10399;50.754;3.366;2023-07-24T03:29:37;17.70;99.90
20481;DHT22;10399;50.754;3.366;2023-07-24T03:32:04;17.70;99.90
20481;DHT22;10399;50.754;3.366;2023-07-24T03:34:32;17.80;99.90
20481;DHT22;10399;50.754;3.366;2023-07-24T03:36:59;17.90;99.90
20481;DHT22;10399;50.754;3.366;2023-07-24T03:39:26;17.80;99.90
20481;DHT22;10399;50.754;3.366;2023-07-24T03:41:54;17.80;99.90
20481;DHT22;10399;50.754;3.366;2023-07-24T03:44:21;17.70;99.90
20481;DHT22;10399;50.754;3.366;2023-07-24T03:46:48;17.60;99.90
20481;DHT22;10399;50.754;3.366;2023-07-24T03:49:15;17.70;99.90
20481;DHT22;10399;50.754;3.366;2023-07-24T03:51:42;17.70;99.90
20481;DHT22;10399;50.754;3.366;2023-07-24T03:54:09;17.70;99.90
20481;DHT22;10399;50.754;3.366;2023-07-24T03:56:37;17.80;99.90
20481;DHT22;10399;50.754;3.366;2023-07-24T03:59:05;17.90;99.90
20481;DHT22;10399;50.754;3.366;2023-07-24T04:01:33;18.00;99.90
20481;DHT22;10399;50.754;3.366;2023-07-24T04:04:00;17.80;99.90
20481;DHT22;10399;50.754;3.366;2023-07-24T04:06:28;17.80;99.90
20481;DHT22;10399;50.754;3.366;2023-07-24T04:08:57;17.90;99.90
20481;DHT22;10399;50.754;3.366;2023-07-24T04:11:24;17.90;99.90
20481;DHT22;10399;50.754;3.366;2023-07-24T04:13:51;18.10;99.90
20481;DHT22;10399;50.754;3.366;2023-07-24T04:16:18;18.10;99.90
20481;DHT22;10399;50.754;3.366;2023-07-24T04:18:46;18.00;99.90
20481;DHT22;10399;50.754;3.366;2023-07-24T04:21:13;17.90;99.90
20481;DHT22;10399;50.754;3.366;2023-07-24T04:23:40;17.90;99.90
20481;DHT22;10399;50.754;3.366;2023-07-24T04:26:08;17.90;99.90
20481;DHT22;10399;50.754;3.366;2023-07-24T04:28:35;18.00;99.90
20481;DHT22;10399;50.754;3.366;2023-07-24T04:31:03;18.00;99.90
20481;DHT22;10399;50.754;3.366;2023-07-24T04:33:30;18.00;99.90
20481;DHT22;10399;50.754;3.366;2023-07-24T04:36:01;18.10;99.90
20481;DHT22;10399;50.754;3.366;2023-07-24T04:38:29;18.20;99.90
20481;DHT22;10399;50.754;3.366;2023-07-24T04:40:56;18.10;99.90
20481;DHT22;10399;50.754;3.366;2023-07-24T04:43:24;18.10;99.90
20481;DHT22;10399;50.754;3.366;2023-07-24T04:45:51;18.20;99.90
20481;DHT22;10399;50.754;3.366;2023-07-24T04:48:18;18.00;99.90
20481;DHT22;10399;50.754;3.366;2023-07-24T04:50:45;18.10;99.90
20481;DHT22;10399;50.754;3.366;2023-07-24T04:53:15;18.10;99.90
20481;DHT22;10399;50.754;3.366;2023-07-24T04:55:43;18.20;99.90
20481;DHT22;10399;50.754;3.366;2023-07-24T04:58:12;18.10;99.90
20481;DHT22;10399;50.754;3.366;2023-07-24T05:00:39;18.20;99.90
20481;DHT22;10399;50.754;3.366;2023-07-24T05:03:07;18.20;99.90
20481;DHT22;10399;50.754;3.366;2023-07-24T05:05:40;18.30;99.90
20481;DHT22;10399;50.754;3.366;2023-07-24T05:08:13;18.30;99.90
20481;DHT22;10399;50.754;3.366;2023-07-24T05:10:41;18.20;99.90
20481;DHT22;10399;50.754;3.366;2023-07-24T05:13:08;18.10;99.90
20481;DHT22;10399;50.754;3.366;2023-07-24T05:15:39;18.10;99.90
20481;DHT22;10399;50.754;3.366;2023-07-24T05:18:07;18.20;99.90
20481;DHT22;10399;50.754;3.366;2023-07-24T05:20:34;18.20;99.90
20481;DHT22;10399;50.754;3.366;2023-07-24T05:23:01;18.20;99.90
20481;DHT22;10399;50.754;3.366;2023-07-24T05:25:28;18.20;99.90
20481;DHT22;10399;50.754;3.366;2023-07-24T05:27:55;18.30;99.90
20481;DHT22;10399;50.754;3.366;2023-07-24T05:30:22;18.30;99.90
20481;DHT22;10399;50.754;3.366;2023-07-24T05:32:50;18.30;99.90
20481;DHT22;10399;50.754;3.366;2023-07-24T05:35:23;18.30;99.90
20481;DHT22;10399;50.754;3.366;2023-07-24T05:37:50;18.40;99.90
20481;DHT22;10399;50.754;3.366;2023-07-24T05:40:17;18.30;99.90
20481;DHT22;10399;50.754;3.366;2023-07-24T05:42:45;18.30;99.90
20481;DHT22;10399;50.754;3.366;2023-07-24T05:45:12;18.30;99.90
20481;DHT22;10399;50.754;3.366;2023-07-24T05:47:41;18.40;99.90
20481;DHT22;10399;50.754;3.366;2023-07-24T05:50:09;18.40;99.90
20481;DHT22;10399;50.754;3.366;2023-07-24T05:52:37;18.30;99.90
20481;DHT22;10399;50.754;3.366;2023-07-24T05:55:04;18.20;99.90
20481;DHT22;10399;50.754;3.366;2023-07-24T05:57:31;18.20;99.90
20481;DHT22;10399;50.754;3.366;2023-07-24T05:59:59;18.20;99.90
20481;DHT22;10399;50.754;3.366;2023-07-24T06:02:26;18.00;99.90
20481;DHT22;10399;50.754;3.366;2023-07-24T06:04:53;18.10;99.90
20481;DHT22;10399;50.754;3.366;2023-07-24T06:07:20;18.00;99.90
20481;DHT22;10399;50.754;3.366;2023-07-24T06:09:47;17.90;99.90
20481;DHT22;10399;50.754;3.366;2023-07-24T06:12:14;18.00;99.90
20481;DHT22;10399;50.754;3.366;2023-07-24T06:14:42;17.90;99.90
20481;DHT22;10399;50.754;3.366;2023-07-24T06:17:09;17.90;99.90
20481;DHT22;10399;50.754;3.366;2023-07-24T06:19:36;17.90;99.90
20481;DHT22;10399;50.754;3.366;2023-07-24T06:22:03;18.00;99.90
20481;DHT22;10399;50.754;3.366;2023-07-24T06:24:30;18.00;99.90
20481;DHT22;10399;50.754;3.366;2023-07-24T06:26:57;18.10;99.90
20481;DHT22;10399;50.754;3.366;2023-07-24T06:29:24;18.10;99.90
20481;DHT22;10399;50.754;3.366;2023-07-24T06:31:52;18.20;99.90
20481;DHT22;10399;50.754;3.366;2023-07-24T06:34:23;18.20;99.90
20481;DHT22;10399;50.754;3.366;2023-07-24T06:36:50;18.20;99.90
20481;DHT22;10399;50.754;3.366;2023-07-24T06:39:17;18.40;99.90
20481;DHT22;10399;50.754;3.366;2023-07-24T06:41:44;18.30;99.90
20481;DHT22;10399;50.754;3.366;2023-07-24T06:44:11;18.40;99.90
20481;DHT22;10399;50.754;3.366;2023-07-24T06:46:38;18.40;99.90
20481;DHT22;10399;50.754;3.366;2023-07-24T06:49:06;18.50;99.90
20481;DHT22;10399;50.754;3.366;2023-07-24T06:51:33;18.20;99.90
20481;DHT22;10399;50.754;3.366;2023-07-24T06:54:00;18.20;99.90
20481;DHT22;10399;50.754;3.366;2023-07-24T06:56:27;18.20;99.90
20481;DHT22;10399;50.754;3.366;2023-07-24T06:58:54;18.20;99.90
20481;DHT22;10399;50.754;3.366;2023-07-24T07:01:21;18.20;99.90
20481;DHT22;10399;50.754;3.366;2023-07-24T07:03:49;18.20;99.90
20481;DHT22;10399;50.754;3.366;2023-07-24T07:06:16;18.40;99.90
20481;DHT22;10399;50.754;3.366;2023-07-24T07:08:46;18.30;99.90
20481;DHT22;10399;50.754;3.366;2023-07-24T07:11:14;18.30;99.90
20481;DHT22;10399;50.754;3.366;2023-07-24T07:13:41;18.30;99.90
20481;DHT22;10399;50.754;3.366;2023-07-24T07:16:08;18.40;99.90
20481;DHT22;10399;50.754;3.366;2023-07-24T07:18:35;18.40;99.90
20481;DHT22;10399;50.754;3.366;2023-07-24T07:21:02;18.60;99.90
20481;DHT22;10399;50.754;3.366;2023-07-24T07:23:31;18.50;99.90
20481;DHT22;10399;50.754;3.366;2023-07-24T07:25:58;18.50;99.90
20481;DHT22;10399;50.754;3.366;2023-07-24T07:28:25;18.40;99.90
20481;DHT22;10399;50.754;3.366;2023-07-24T07:30:54;18.50;99.90
20481;DHT22;10399;50.754;3.366;2023-07-24T07:33:21;18.70;99.90
20481;DHT22;10399;50.754;3.366;2023-07-24T07:35:51;18.50;99.90
20481;DHT22;10399;50.754;3.366;2023-07-24T07:38:18;18.50;99.90
20481;DHT22;10399;50.754;3.366;2023-07-24T07:40:49;18.60;99.90
20481;DHT22;10399;50.754;3.366;2023-07-24T07:43:16;18.60;99.90
20481;DHT22;10399;50.754;3.366;2023-07-24T07:45:46;18.50;99.90
20481;DHT22;10399;50.754;3.366;2023-07-24T07:48:13;18.70;99.90
20481;DHT22;10399;50.754;3.366;2023-07-24T07:50:40;18.70;99.90
20481;DHT22;10399;50.754;3.366;2023-07-24T07:53:08;18.90;99.90
20481;DHT22;10399;50.754;3.366;2023-07-24T07:55:35;19.00;99.90
20481;DHT22;10399;50.754;3.366;2023-07-24T07:58:02;19.10;99.90
20481;DHT22;10399;50.754;3.366;2023-07-24T08:00:30;19.30;99.90
20481;DHT22;10399;50.754;3.366;2023-07-24T08:02:58;19.40;99.90
20481;DHT22;10399;50.754;3.366;2023-07-24T08:05:26;19.30;99.90
20481;DHT22;10399;50.754;3.366;2023-07-24T08:07:53;19.60;99.90
20481;DHT22;10399;50.754;3.366;2023-07-24T08:10:20;19.70;99.90
20481;DHT22;10399;50.754;3.366;2023-07-24T08:12:47;19.90;99.90
20481;DHT22;10399;50.754;3.366;2023-07-24T08:15:14;19.90;99.90
20481;DHT22;10399;50.754;3.366;2023-07-24T08:17:42;19.90;99.90
20481;DHT22;10399;50.754;3.366;2023-07-24T08:20:09;19.80;99.90
20481;DHT22;10399;50.754;3.366;2023-07-24T08:22:37;19.80;99.90
20481;DHT22;10399;50.754;3.366;2023-07-24T08:25:04;19.90;99.90
20481;DHT22;10399;50.754;3.366;2023-07-24T08:27:32;19.90;99.90
20481;DHT22;10399;50.754;3.366;2023-07-24T08:30:11;20.10;99.90
20481;DHT22;10399;50.754;3.366;2023-07-24T08:32:39;20.00;99.90
20481;DHT22;10399;50.754;3.366;2023-07-24T08:35:06;19.80;99.90
20481;DHT22;10399;50.754;3.366;2023-07-24T08:37:34;20.10;99.90
20481;DHT22;10399;50.754;3.366;2023-07-24T08:40:01;20.60;99.90
20481;DHT22;10399;50.754;3.366;2023-07-24T08:42:29;20.90;99.90
20481;DHT22;10399;50.754;3.366;2023-07-24T08:44:58;21.20;99.90
20481;DHT22;10399;50.754;3.366;2023-07-24T08:47:26;21.50;99.90
20481;DHT22;10399;50.754;3.366;2023-07-24T08:49:53;21.80;99.90
20481;DHT22;10399;50.754;3.366;2023-07-24T08:52:20;21.30;99.90
20481;DHT22;10399;50.754;3.366;2023-07-24T08:55:02;21.20;99.90
20481;DHT22;10399;50.754;3.366;2023-07-24T08:57:30;21.30;99.90
20481;DHT22;10399;50.754;3.366;2023-07-24T08:59:56;21.40;99.90
20481;DHT22;10399;50.754;3.366;2023-07-24T09:02:25;21.50;99.90
20481;DHT22;10399;50.754;3.366;2023-07-24T09:04:52;21.40;99.90
20481;DHT22;10399;50.754;3.366;2023-07-24T09:07:19;21.30;99.90
20481;DHT22;10399;50.754;3.366;2023-07-24T09:09:47;21.30;99.90
20481;DHT22;10399;50.754;3.366;2023-07-24T09:12:15;21.50;99.90
20481;DHT22;10399;50.754;3.366;2023-07-24T09:14:42;21.70;99.90
20481;DHT22;10399;50.754;3.366;2023-07-24T09:17:12;21.70;99.90
20481;DHT22;10399;50.754;3.366;2023-07-24T09:19:39;21.90;99.90
20481;DHT22;10399;50.754;3.366;2023-07-24T09:22:11;21.50;99.90
20481;DHT22;10399;50.754;3.366;2023-07-24T09:24:49;21.30;99.90
20481;DHT22;10399;50.754;3.366;2023-07-24T09:27:17;21.50;99.90
20481;DHT22;10399;50.754;3.366;2023-07-24T09:29:45;21.20;99.90
20481;DHT22;10399;50.754;3.366;2023-07-24T09:32:24;21.10;99.90
20481;DHT22;10399;50.754;3.366;2023-07-24T09:34:52;21.20;99.90
20481;DHT22;10399;50.754;3.366;2023-07-24T09:37:27;21.40;99.90
20481;DHT22;10399;50.754;3.366;2023-07-24T09:39:55;21.30;99.90
20481;DHT22;10399;50.754;3.366;2023-07-24T09:42:30;21.30;99.90
20481;DHT22;10399;50.754;3.366;2023-07-24T09:44:57;21.20;99.90
20481;DHT22;10399;50.754;3.366;2023-07-24T09:47:25;21.30;99.90
20481;DHT22;10399;50.754;3.366;2023-07-24T09:50:13;21.30;99.90
20481;DHT22;10399;50.754;3.366;2023-07-24T09:52:41;21.50;99.90
20481;DHT22;10399;50.754;3.366;2023-07-24T09:55:29;21.50;99.90
20481;DHT22;10399;50.754;3.366;2023-07-24T09:57:58;21.70;99.90
20481;DHT22;10399;50.754;3.366;2023-07-24T10:00:27;22.50;99.90
20481;DHT22;10399;50.754;3.366;2023-07-24T10:02:55;23.00;99.90
20481;DHT22;10399;50.754;3.366;2023-07-24T10:05:23;23.30;99.90
20481;DHT22;10399;50.754;3.366;2023-07-24T10:07:51;22.90;99.90
20481;DHT22;10399;50.754;3.366;2023-07-24T10:10:20;23.00;99.90
20481;DHT22;10399;50.754;3.366;2023-07-24T10:12:48;23.10;99.90
20481;DHT22;10399;50.754;3.366;2023-07-24T10:15:17;23.00;99.90
20481;DHT22;10399;50.754;3.366;2023-07-24T10:17:45;22.90;99.90
20481;DHT22;10399;50.754;3.366;2023-07-24T10:20:16;22.90;99.90
20481;DHT22;10399;50.754;3.366;2023-07-24T10:22:44;22.40;99.90
20481;DHT22;10399;50.754;3.366;2023-07-24T10:25:13;22.30;99.90
20481;DHT22;10399;50.754;3.366;2023-07-24T10:27:42;22.20;99.90
20481;DHT22;10399;50.754;3.366;2023-07-24T10:30:14;22.20;99.90
20481;DHT22;10399;50.754;3.366;2023-07-24T10:35:40;22.50;99.90
20481;DHT22;10399;50.754;3.366;2023-07-24T10:38:09;22.50;99.90
20481;DHT22;10399;50.754;3.366;2023-07-24T10:40:37;22.60;99.90
20481;DHT22;10399;50.754;3.366;2023-07-24T10:43:12;22.20;99.90
20481;DHT22;10399;50.754;3.366;2023-07-24T10:45:54;22.40;99.90
20481;DHT22;10399;50.754;3.366;2023-07-24T10:48:24;22.40;99.90
20481;DHT22;10399;50.754;3.366;2023-07-24T10:50:52;22.20;99.90
20481;DHT22;10399;50.754;3.366;2023-07-24T10:53:22;22.00;99.90
20481;DHT22;10399;50.754;3.366;2023-07-24T10:55:51;22.30;99.90
20481;DHT22;10399;50.754;3.366;2023-07-24T10:58:19;22.50;99.90
20481;DHT22;10399;50.754;3.366;2023-07-24T11:00:46;22.80;99.90
20481;DHT22;10399;50.754;3.366;2023-07-24T11:03:15;22.70;99.90
20481;DHT22;10399;50.754;3.366;2023-07-24T11:05:46;22.80;99.90
20481;DHT22;10399;50.754;3.366;2023-07-24T11:08:20;22.60;99.90
20481;DHT22;10399;50.754;3.366;2023-07-24T11:10:52;22.60;99.90
20481;DHT22;10399;50.754;3.366;2023-07-24T11:13:24;22.50;99.90
20481;DHT22;10399;50.754;3.366;2023-07-24T11:15:52;22.60;99.90
20481;DHT22;10399;50.754;3.366;2023-07-24T11:18:21;22.40;99.90
20481;DHT22;10399;50.754;3.366;2023-07-24T11:20:51;21.90;99.90
20481;DHT22;10399;50.754;3.366;2023-07-24T11:23:19;21.80;99.90
20481;DHT22;10399;50.754;3.366;2023-07-24T11:25:50;21.60;99.90
20481;DHT22;10399;50.754;3.366;2023-07-24T11:28:17;21.60;99.90
20481;DHT22;10399;50.754;3.366;2023-07-24T11:30:47;21.50;99.90
20481;DHT22;10399;50.754;3.366;2023-07-24T11:33:16;20.80;99.90
20481;DHT22;10399;50.754;3.366;2023-07-24T11:35:45;20.60;99.90
20481;DHT22;10399;50.754;3.366;2023-07-24T11:38:13;20.30;99.90
20481;DHT22;10399;50.754;3.366;2023-07-24T11:40:42;20.10;99.90
20481;DHT22;10399;50.754;3.366;2023-07-24T11:43:17;19.90;99.90
20481;DHT22;10399;50.754;3.366;2023-07-24T11:45:46;20.00;99.90
20481;DHT22;10399;50.754;3.366;2023-07-24T11:48:16;20.30;99.90
20481;DHT22;10399;50.754;3.366;2023-07-24T11:50:44;20.60;99.90
20481;DHT22;10399;50.754;3.366;2023-07-24T11:55:55;21.90;99.90
20481;DHT22;10399;50.754;3.366;2023-07-24T11:58:26;22.10;99.90
20481;DHT22;10399;50.754;3.366;2023-07-24T12:00:54;22.00;99.90
20481;DHT22;10399;50.754;3.366;2023-07-24T12:03:26;21.90;99.90
20481;DHT22;10399;50.754;3.366;2023-07-24T12:05:54;21.90;99.90
20481;DHT22;10399;50.754;3.366;2023-07-24T12:08:33;22.00;99.90
20481;DHT22;10399;50.754;3.366;2023-07-24T12:11:02;22.20;99.90
20481;DHT22;10399;50.754;3.366;2023-07-24T12:13:29;22.70;99.90
20481;DHT22;10399;50.754;3.366;2023-07-24T12:15:59;22.70;99.90
20481;DHT22;10399;50.754;3.366;2023-07-24T12:18:26;22.90;99.90
20481;DHT22;10399;50.754;3.366;2023-07-24T12:20:53;22.90;99.90
20481;DHT22;10399;50.754;3.366;2023-07-24T12:23:20;22.90;99.90
20481;DHT22;10399;50.754;3.366;2023-07-24T12:25:49;22.40;99.90
20481;DHT22;10399;50.754;3.366;2023-07-24T12:28:16;22.60;99.90
20481;DHT22;10399;50.754;3.366;2023-07-24T12:30:43;22.20;99.90
20481;DHT22;10399;50.754;3.366;2023-07-24T12:33:11;22.40;99.90
20481;DHT22;10399;50.754;3.366;2023-07-24T12:35:39;22.40;99.90
20481;DHT22;10399;50.754;3.366;2023-07-24T12:38:06;22.10;99.90
20481;DHT22;10399;50.754;3.366;2023-07-24T12:40:33;21.80;99.90
20481;DHT22;10399;50.754;3.366;2023-07-24T12:43:00;21.60;99.90
20481;DHT22;10399;50.754;3.366;2023-07-24T12:45:28;21.60;99.90
20481;DHT22;10399;50.754;3.366;2023-07-24T12:47:55;21.90;99.90
20481;DHT22;10399;50.754;3.366;2023-07-24T12:50:23;22.30;99.90
20481;DHT22;10399;50.754;3.366;2023-07-24T12:52:51;23.00;99.90
20481;DHT22;10399;50.754;3.366;2023-07-24T12:55:18;23.20;99.90
20481;DHT22;10399;50.754;3.366;2023-07-24T12:57:45;23.50;99.90
20481;DHT22;10399;50.754;3.366;2023-07-24T13:00:13;24.10;99.90
20481;DHT22;10399;50.754;3.366;2023-07-24T13:02:40;24.30;99.90
20481;DHT22;10399;50.754;3.366;2023-07-24T13:05:07;24.30;99.90
20481;DHT22;10399;50.754;3.366;2023-07-24T13:07:35;24.20;99.90
20481;DHT22;10399;50.754;3.366;2023-07-24T13:10:02;24.70;99.90
20481;DHT22;10399;50.754;3.366;2023-07-24T13:12:29;24.50;99.90
20481;DHT22;10399;50.754;3.366;2023-07-24T13:14:57;24.00;99.90
20481;DHT22;10399;50.754;3.366;2023-07-24T13:17:24;24.10;99.90
20481;DHT22;10399;50.754;3.366;2023-07-24T13:19:52;24.60;99.90
20481;DHT22;10399;50.754;3.366;2023-07-24T13:22:20;24.40;99.90
20481;DHT22;10399;50.754;3.366;2023-07-24T13:24:47;24.60;99.90
20481;DHT22;10399;50.754;3.366;2023-07-24T13:27:14;25.00;99.90
20481;DHT22;10399;50.754;3.366;2023-07-24T13:29:41;24.80;99.90
20481;DHT22;10399;50.754;3.366;2023-07-24T13:32:08;25.10;99.90
20481;DHT22;10399;50.754;3.366;2023-07-24T13:34:35;25.00;99.90
20481;DHT22;10399;50.754;3.366;2023-07-24T13:37:02;24.90;99.90
20481;DHT22;10399;50.754;3.366;2023-07-24T13:39:30;24.90;99.90
20481;DHT22;10399;50.754;3.366;2023-07-24T13:41:58;24.40;99.90
20481;DHT22;10399;50.754;3.366;2023-07-24T13:44:25;24.40;99.90
20481;DHT22;10399;50.754;3.366;2023-07-24T13:46:52;24.10;99.90
20481;DHT22;10399;50.754;3.366;2023-07-24T13:49:23;24.30;99.90
20481;DHT22;10399;50.754;3.366;2023-07-24T13:51:50;23.90;99.90
20481;DHT22;10399;50.754;3.366;2023-07-24T13:54:17;23.90;99.90
20481;DHT22;10399;50.754;3.366;2023-07-24T13:56:45;24.00;99.90
20481;DHT22;10399;50.754;3.366;2023-07-24T13:59:12;23.90;99.90
20481;DHT22;10399;50.754;3.366;2023-07-24T14:01:39;23.50;99.90
20481;DHT22;10399;50.754;3.366;2023-07-24T14:04:06;23.00;99.90
20481;DHT22;10399;50.754;3.366;2023-07-24T14:06:33;22.30;99.90
20481;DHT22;10399;50.754;3.366;2023-07-24T14:09:01;22.30;99.90
20481;DHT22;10399;50.754;3.366;2023-07-24T14:11:28;22.30;99.90
20481;DHT22;10399;50.754;3.366;2023-07-24T14:13:56;22.10;99.90
20481;DHT22;10399;50.754;3.366;2023-07-24T14:16:23;22.10;99.90
20481;DHT22;10399;50.754;3.366;2023-07-24T14:18:50;22.00;99.90
20481;DHT22;10399;50.754;3.366;2023-07-24T14:21:17;22.20;99.90
20481;DHT22;10399;50.754;3.366;2023-07-24T14:23:44;22.10;99.90
20481;DHT22;10399;50.754;3.366;2023-07-24T14:26:13;22.40;99.90
20481;DHT22;10399;50.754;3.366;2023-07-24T14:28:40;22.50;99.90
20481;DHT22;10399;50.754;3.366;2023-07-24T14:31:07;22.70;99.90
20481;DHT22;10399;50.754;3.366;2023-07-24T14:33:35;22.60;99.90
20481;DHT22;10399;50.754;3.366;2023-07-24T14:36:02;22.70;99.90
20481;DHT22;10399;50.754;3.366;2023-07-24T14:38:30;22.80;99.90
20481;DHT22;10399;50.754;3.366;2023-07-24T14:40:58;23.00;99.90
20481;DHT22;10399;50.754;3.366;2023-07-24T14:43:25;22.90;99.90
20481;DHT22;10399;50.754;3.366;2023-07-24T14:45:53;23.20;99.90
20481;DHT22;10399;50.754;3.366;2023-07-24T14:48:21;24.00;99.90
20481;DHT22;10399;50.754;3.366;2023-07-24T14:50:49;25.10;99.90
20481;DHT22;10399;50.754;3.366;2023-07-24T14:53:16;25.80;99.90
20481;DHT22;10399;50.754;3.366;2023-07-24T14:55:43;26.10;99.90
20481;DHT22;10399;50.754;3.366;2023-07-24T14:58:11;25.80;99.90
20481;DHT22;10399;50.754;3.366;2023-07-24T15:00:38;25.70;99.90
20481;DHT22;10399;50.754;3.366;2023-07-24T15:03:06;25.60;99.90
20481;DHT22;10399;50.754;3.366;2023-07-24T15:05:34;25.30;99.90
20481;DHT22;10399;50.754;3.366;2023-07-24T15:08:01;24.70;99.90
20481;DHT22;10399;50.754;3.366;2023-07-24T15:10:29;24.20;99.90
20481;DHT22;10399;50.754;3.366;2023-07-24T15:12:56;23.50;99.90
20481;DHT22;10399;50.754;3.366;2023-07-24T15:15:23;23.20;99.90
20481;DHT22;10399;50.754;3.366;2023-07-24T15:17:50;22.90;99.90
20481;DHT22;10399;50.754;3.366;2023-07-24T15:20:17;22.70;99.90
20481;DHT22;10399;50.754;3.366;2023-07-24T15:22:44;22.50;99.90
20481;DHT22;10399;50.754;3.366;2023-07-24T15:25:11;22.50;99.90
20481;DHT22;10399;50.754;3.366;2023-07-24T15:27:39;22.50;99.90
20481;DHT22;10399;50.754;3.366;2023-07-24T15:30:07;22.60;99.90
20481;DHT22;10399;50.754;3.366;2023-07-24T15:32:34;23.20;99.90
20481;DHT22;10399;50.754;3.366;2023-07-24T15:35:01;23.80;99.90
20481;DHT22;10399;50.754;3.366;2023-07-24T15:37:28;24.50;99.90
20481;DHT22;10399;50.754;3.366;2023-07-24T15:40:00;25.00;99.90
20481;DHT22;10399;50.754;3.366;2023-07-24T15:42:27;25.10;99.90